Terminal Aerodrome Forecast
Issued by NWS

Home | Current Version | Previous Version | Text Only | Print | Product List | Glossary On
Versions: 1 2 3 4 5 6 7 8 9 10 11 12
000
FTUS45 KTFX 312300
TAFHLN
TAF
KHLN 312329Z 0100/0124 VRB05KT P6SM SCT150
     FM010900 VRB05KT P6SM BKN120
     FM011400 VRB05KT P6SM VCSH SCT060 OVC090=

USA.gov is the U.S. government's official web portal to all federal, state and local government web resources and services.